Time;durP1;ratioP1;P1;durP2;ratioP2;P2;SDS_P1;SDS_P2;PMS_P1;PMS_P2;Temp;Humidity;BMP_temperature;BMP_pressure;BME280_temperature;BME280_humidity;BME280_pressure;Samples;Min_cycle;Max_cycle;Signal;HPM_P1;HPM_P2
2021/07/24 00:01:51;;;;;;;1.13;0.70;;;11.70;94.60;;;;;;4918355;29;20431;-67
2021/07/24 00:04:17;;;;;;;1.10;0.90;;;11.70;94.60;;;;;;4918226;29;20059;-67
2021/07/24 00:06:43;;;;;;;0.68;0.55;;;11.60;94.70;;;;;;4918224;29;20024;-67
2021/07/24 00:09:09;;;;;;;1.25;0.70;;;11.60;94.80;;;;;;4917816;29;20028;-67
2021/07/24 00:11:35;;;;;;;0.60;0.60;;;11.60;94.90;;;;;;4918070;29;20031;-67
2021/07/24 00:14:01;;;;;;;1.17;0.60;;;11.50;95.10;;;;;;4918334;29;20429;-67
2021/07/24 00:16:27;;;;;;;1.88;0.57;;;11.50;95.20;;;;;;4918160;29;20020;-67
2021/07/24 00:18:52;;;;;;;0.68;0.68;;;11.50;95.30;;;;;;4917886;29;20548;-67
2021/07/24 00:21:19;;;;;;;0.98;0.57;;;11.40;95.40;;;;;;4918113;29;20496;-67
2021/07/24 00:23:45;;;;;;;2.05;0.60;;;11.40;95.50;;;;;;4917941;29;20059;-69
2021/07/24 00:26:14;;;;;;;0.75;0.50;;;11.40;95.50;;;;;;4918184;29;20062;-67
2021/07/24 00:28:41;;;;;;;0.87;0.70;;;11.40;95.70;;;;;;4917804;29;20035;-67
2021/07/24 00:31:06;;;;;;;0.70;0.70;;;11.40;95.70;;;;;;4918060;29;20497;-67
2021/07/24 00:33:32;;;;;;;0.63;0.63;;;11.30;95.70;;;;;;4917696;29;20115;-67
2021/07/24 00:35:58;;;;;;;0.88;0.60;;;11.30;95.80;;;;;;4917974;29;20127;-67
2021/07/24 00:38:27;;;;;;;3.17;0.50;;;11.30;95.90;;;;;;4917559;29;20024;-67
2021/07/24 00:41:00;;;;;;;0.65;0.47;;;11.30;95.80;;;;;;4917637;29;20040;-67
2021/07/24 00:43:34;;;;;;;0.93;0.52;;;11.20;95.90;;;;;;4917468;29;20075;-67
2021/07/24 00:46:02;;;;;;;0.70;0.60;;;11.20;96.30;;;;;;4917618;29;20126;-67
2021/07/24 00:48:28;;;;;;;1.52;0.70;;;11.10;96.50;;;;;;4917412;29;20078;-67
2021/07/24 00:50:57;;;;;;;0.73;0.60;;;11.00;96.60;;;;;;4917494;29;20025;-67
2021/07/24 00:53:24;;;;;;;0.55;0.55;;;11.00;96.80;;;;;;4917054;29;20052;-67
2021/07/24 00:55:53;;;;;;;1.08;0.68;;;11.00;96.90;;;;;;4917302;29;20032;-67
2021/07/24 00:58:25;;;;;;;1.58;0.75;;;11.00;97.10;;;;;;4917117;29;20029;-67
2021/07/24 01:00:51;;;;;;;0.50;0.50;;;10.90;97.30;;;;;;4917542;29;20046;-67
2021/07/24 01:03:17;;;;;;;1.15;0.70;;;10.90;97.40;;;;;;4917728;29;20083;-67
2021/07/24 01:05:45;;;;;;;1.77;0.60;;;10.90;97.40;;;;;;4917272;29;20032;-67
2021/07/24 01:08:11;;;;;;;0.60;0.60;;;10.90;97.40;;;;;;4917456;29;20028;-67
2021/07/24 01:10:37;;;;;;;0.63;0.63;;;10.90;97.50;;;;;;4916914;29;20488;-67
2021/07/24 01:13:04;;;;;;;0.50;0.50;;;10.90;97.70;;;;;;4916974;29;20028;-67
2021/07/24 01:15:31;;;;;;;0.50;0.50;;;10.90;97.80;;;;;;4916755;29;20114;-67
2021/07/24 01:54:23;;;;;;;1.05;0.60;;;10.60;99.90;;;;;;4969832;23;20063;-67
2021/07/24 01:56:49;;;;;;;0.60;0.60;;;10.60;99.90;;;;;;4973863;28;20101;-67
2021/07/24 01:59:18;;;;;;;4.03;0.60;;;10.70;99.90;;;;;;4973447;28;20478;-67
2021/07/24 02:01:44;;;;;;;0.60;0.60;;;10.60;99.90;;;;;;4973647;28;20486;-67
2021/07/24 02:04:15;;;;;;;0.60;0.60;;;10.70;99.90;;;;;;4973613;28;20102;-67
2021/07/24 02:06:42;;;;;;;0.90;0.80;;;10.70;99.90;;;;;;4973714;28;20019;-67
2021/07/24 02:09:08;;;;;;;0.82;0.63;;;10.60;99.90;;;;;;4956228;28;20055;-68
2021/07/24 02:11:34;;;;;;;0.57;0.57;;;10.60;99.90;;;;;;4973481;28;20027;-68
2021/07/24 02:14:00;;;;;;;1.38;0.68;;;10.60;99.90;;;;;;4973434;28;20023;-67
2021/07/24 02:16:26;;;;;;;1.27;0.60;;;10.70;99.90;;;;;;4956112;28;20029;-67
2021/07/24 02:18:54;;;;;;;0.80;0.60;;;10.60;99.90;;;;;;4973324;28;20026;-67
2021/07/24 02:21:20;;;;;;;1.20;0.73;;;10.60;99.90;;;;;;4973258;28;20508;-67
2021/07/24 02:23:46;;;;;;;0.50;0.50;;;10.60;99.90;;;;;;4973407;28;20027;-67
2021/07/24 02:26:12;;;;;;;0.77;0.70;;;10.60;99.90;;;;;;4973877;28;20027;-67
2021/07/24 02:28:38;;;;;;;0.50;0.50;;;10.60;99.90;;;;;;4973302;28;20474;-68
2021/07/24 02:31:05;;;;;;;0.70;0.70;;;10.60;99.90;;;;;;4973246;28;20073;-67
2021/07/24 02:33:31;;;;;;;1.05;0.73;;;10.60;99.90;;;;;;4972963;28;20031;-67
2021/07/24 02:35:57;;;;;;;2.53;0.70;;;10.60;99.90;;;;;;4973296;28;20027;-67
2021/07/24 02:38:23;;;;;;;0.88;0.75;;;10.60;99.90;;;;;;4973025;28;20050;-68
2021/07/24 02:40:49;;;;;;;0.68;0.68;;;10.60;99.90;;;;;;4973258;28;20121;-68
2021/07/24 02:43:15;;;;;;;0.60;0.60;;;10.60;99.90;;;;;;4972865;28;20174;-68
2021/07/24 02:45:41;;;;;;;1.77;0.80;;;10.60;99.90;;;;;;4973382;28;20058;-67
2021/07/24 02:48:06;;;;;;;0.70;0.70;;;10.60;99.90;;;;;;4973282;28;20557;-67
2021/07/24 02:50:32;;;;;;;1.83;0.57;;;10.70;99.90;;;;;;4973034;28;20478;-68
2021/07/24 02:52:58;;;;;;;0.77;0.77;;;10.60;99.90;;;;;;4972805;28;20062;-67
2021/07/24 02:55:24;;;;;;;1.38;0.98;;;10.70;99.90;;;;;;4973148;28;20054;-68
2021/07/24 02:57:50;;;;;;;0.68;0.60;;;10.70;99.90;;;;;;4972944;28;20027;-67
2021/07/24 03:00:16;;;;;;;1.10;0.80;;;10.70;99.90;;;;;;4972743;28;20035;-68
2021/07/24 03:02:41;;;;;;;2.80;0.93;;;10.70;99.90;;;;;;4973093;28;20023;-68
2021/07/24 03:05:07;;;;;;;0.80;0.70;;;10.70;99.90;;;;;;4972981;28;20482;-67
2021/07/24 03:07:33;;;;;;;0.90;0.70;;;10.80;99.90;;;;;;4972826;28;20019;-67
2021/07/24 03:09:59;;;;;;;1.02;0.80;;;10.90;99.90;;;;;;4972898;28;20486;-67
2021/07/24 03:12:24;;;;;;;0.98;0.90;;;10.90;99.90;;;;;;4955360;28;20029;-68
2021/07/24 03:14:50;;;;;;;1.38;0.85;;;11.00;99.90;;;;;;4973118;28;20114;-67
2021/07/24 03:17:16;;;;;;;0.70;0.70;;;11.00;99.90;;;;;;4972722;28;20478;-67
2021/07/24 03:19:42;;;;;;;1.17;0.82;;;11.10;99.90;;;;;;4972993;28;20035;-67
2021/07/24 03:22:07;;;;;;;1.10;0.63;;;11.20;99.90;;;;;;4972727;28;20481;-67
2021/07/24 03:24:33;;;;;;;1.15;0.80;;;11.50;99.90;;;;;;4955458;28;20022;-67
2021/07/24 03:26:59;;;;;;;1.13;0.90;;;11.80;99.90;;;;;;4972885;28;20018;-67
2021/07/24 03:29:25;;;;;;;1.55;0.68;;;12.00;99.90;;;;;;4972526;28;20031;-67
2021/07/24 03:31:50;;;;;;;1.23;0.80;;;12.00;99.90;;;;;;4972836;28;20057;-67
2021/07/24 03:34:16;;;;;;;1.58;0.90;;;11.90;99.90;;;;;;4972394;28;20029;-68
2021/07/24 03:36:42;;;;;;;2.65;0.95;;;11.90;99.90;;;;;;4972942;28;20030;-67
2021/07/24 03:39:07;;;;;;;1.88;1.05;;;11.80;99.90;;;;;;4972475;28;20398;-67
2021/07/24 03:41:35;;;;;;;0.93;0.70;;;11.70;99.90;;;;;;4972524;28;20030;-67
2021/07/24 03:44:01;;;;;;;1.33;0.70;;;11.70;99.90;;;;;;4974937;28;20033;-67
2021/07/24 03:46:27;;;;;;;0.70;0.70;;;11.70;99.90;;;;;;4975997;28;20039;-68
2021/07/24 03:48:54;;;;;;;0.70;0.70;;;11.70;99.90;;;;;;4976077;28;20039;-67
2021/07/24 03:51:20;;;;;;;0.70;0.70;;;11.70;99.90;;;;;;4976476;28;20046;-67
2021/07/24 03:53:45;;;;;;;1.88;0.90;;;11.70;99.90;;;;;;4975777;28;20133;-68
2021/07/24 03:56:15;;;;;;;1.23;0.80;;;11.80;99.90;;;;;;4976083;28;20109;-67
2021/07/24 03:58:43;;;;;;;1.98;0.90;;;12.20;99.90;;;;;;4975738;28;20501;-68
2021/07/24 04:01:09;;;;;;;2.45;0.82;;;12.80;99.90;;;;;;4976052;28;20041;-67
2021/07/24 04:03:35;;;;;;;1.13;0.80;;;13.30;99.90;;;;;;4975739;28;20073;-68
2021/07/24 04:06:01;;;;;;;1.08;0.90;;;13.80;99.90;;;;;;4975975;28;20027;-68
2021/07/24 04:08:27;;;;;;;1.63;0.90;;;14.30;99.90;;;;;;4975668;28;20034;-67
2021/07/24 04:10:53;;;;;;;1.05;0.80;;;14.70;98.90;;;;;;4976090;28;20119;-68
2021/07/24 04:13:19;;;;;;;4.15;0.80;;;15.20;98.00;;;;;;4975516;28;20045;-68
2021/07/24 04:15:45;;;;;;;2.72;0.85;;;15.50;96.90;;;;;;4975675;28;20030;-68
2021/07/24 04:18:11;;;;;;;1.38;0.90;;;15.90;95.80;;;;;;4975518;28;20085;-67
2021/07/24 04:20:38;;;;;;;0.85;0.70;;;16.20;95.10;;;;;;4975403;28;20398;-68
2021/07/24 04:23:04;;;;;;;0.50;0.50;;;16.50;94.50;;;;;;4975651;28;20183;-68
2021/07/24 04:25:30;;;;;;;2.17;0.70;;;16.80;93.80;;;;;;4975373;28;20035;-68
2021/07/24 04:27:56;;;;;;;1.33;0.70;;;17.10;93.00;;;;;;4975678;28;20491;-68
2021/07/24 04:30:22;;;;;;;1.58;0.60;;;17.30;92.10;;;;;;4975436;28;20488;-68
2021/07/24 04:32:48;;;;;;;0.93;0.70;;;17.50;91.80;;;;;;4975559;28;20508;-68
2021/07/24 04:35:13;;;;;;;0.60;0.60;;;17.80;91.30;;;;;;4975522;28;20491;-68
2021/07/24 04:37:39;;;;;;;1.10;0.73;;;17.90;90.90;;;;;;4975174;28;20402;-68
2021/07/24 04:40:06;;;;;;;0.93;0.70;;;17.90;90.70;;;;;;4975346;28;20039;-68
2021/07/24 04:42:33;;;;;;;0.75;0.60;;;17.90;90.40;;;;;;4975529;28;20022;-68
2021/07/24 04:44:59;;;;;;;2.80;0.80;;;18.20;90.20;;;;;;4975311;28;20042;-67
2021/07/24 04:47:24;;;;;;;2.15;0.60;;;18.40;89.90;;;;;;4975167;28;20033;-68
2021/07/24 04:49:52;;;;;;;2.17;0.60;;;18.50;88.40;;;;;;4975244;28;20445;-68
2021/07/24 04:52:19;;;;;;;0.73;0.60;;;18.40;88.80;;;;;;4974855;28;20118;-68
2021/07/24 04:54:46;;;;;;;3.10;0.73;;;18.30;89.00;;;;;;4973752;28;20542;-68
2021/07/24 04:57:13;;;;;;;1.88;0.68;;;18.60;89.00;;;;;;4975211;28;20027;-68
2021/07/24 04:59:47;;;;;;;1.38;0.70;;;18.90;88.40;;;;;;4974791;28;20039;-68
2021/07/24 05:02:17;;;;;;;0.88;0.55;;;19.40;86.60;;;;;;4974968;28;20022;-68
2021/07/24 05:04:47;;;;;;;0.90;0.60;;;19.60;84.50;;;;;;4974581;28;20019;-68
2021/07/24 05:07:14;;;;;;;0.77;0.60;;;19.60;83.30;;;;;;4975021;28;20115;-68
2021/07/24 05:09:41;;;;;;;3.13;0.60;;;19.60;83.60;;;;;;4975019;28;20026;-68
2021/07/24 05:12:07;;;;;;;0.77;0.60;;;19.90;83.40;;;;;;4974842;28;20093;-68
2021/07/24 05:14:33;;;;;;;2.35;0.63;;;20.20;82.10;;;;;;4974648;28;20167;-68
2021/07/24 05:17:12;;;;;;;0.50;0.50;;;20.50;81.00;;;;;;4974532;28;20026;-68
2021/07/24 05:19:43;;;;;;;0.70;0.60;;;20.90;79.40;;;;;;4974300;28;20509;-68
2021/07/24 05:22:10;;;;;;;0.55;0.40;;;21.10;78.20;;;;;;4974462;28;20030;-68
2021/07/24 05:24:36;;;;;;;0.63;0.50;;;21.30;76.20;;;;;;4974240;28;20081;-68
2021/07/24 05:27:03;;;;;;;0.98;0.65;;;21.50;76.00;;;;;;4974597;28;20069;-68
2021/07/24 05:29:29;;;;;;;1.17;0.70;;;21.60;75.40;;;;;;4974127;28;20034;-68
2021/07/24 05:31:56;;;;;;;0.40;0.40;;;21.80;74.60;;;;;;4974491;28;20027;-68
2021/07/24 05:34:22;;;;;;;0.50;0.50;;;21.90;73.00;;;;;;4974203;28;20355;-68
2021/07/24 05:36:48;;;;;;;1.13;0.40;;;21.90;72.90;;;;;;4974205;28;20037;-68
2021/07/24 05:39:14;;;;;;;3.08;0.85;;;22.00;72.90;;;;;;4974059;28;20038;-68
2021/07/24 05:41:40;;;;;;;1.38;0.57;;;22.10;71.80;;;;;;4974209;28;20034;-68
2021/07/24 05:44:05;;;;;;;1.13;0.63;;;22.10;72.20;;;;;;4974286;28;20018;-68
2021/07/24 05:46:31;;;;;;;0.65;0.50;;;22.30;70.20;;;;;;4973949;28;20034;-68
2021/07/24 05:48:57;;;;;;;0.90;0.40;;;22.60;70.70;;;;;;4973959;28;20050;-68
2021/07/24 05:51:22;;;;;;;0.82;0.57;;;22.60;68.40;;;;;;4974181;28;20053;-65
2021/07/24 05:53:48;;;;;;;0.52;0.50;;;22.30;67.60;;;;;;4973631;28;20572;-66
2021/07/24 05:56:14;;;;;;;1.33;0.60;;;21.90;67.70;;;;;;4974087;28;20029;-65
2021/07/24 05:58:40;;;;;;;1.83;0.40;;;21.60;68.30;;;;;;4973621;28;20409;-68
2021/07/24 06:01:12;;;;;;;2.25;0.93;;;21.40;69.80;;;;;;4973716;28;20027;-68
2021/07/24 06:03:39;;;;;;;0.75;0.63;;;21.30;70.30;;;;;;4973649;28;20121;-68
2021/07/24 06:06:05;;;;;;;1.25;0.77;;;21.40;70.50;;;;;;4973295;28;20033;-68
2021/07/24 06:08:31;;;;;;;0.98;0.60;;;21.80;70.30;;;;;;4973490;28;20026;-68
2021/07/24 06:11:01;;;;;;;1.38;0.77;;;22.10;68.80;;;;;;4973777;28;20038;-66
2021/07/24 06:13:27;;;;;;;2.22;0.60;;;22.20;67.90;;;;;;4973167;28;20478;-66
2021/07/24 06:15:53;;;;;;;1.10;0.65;;;22.30;68.20;;;;;;4973763;28;20073;-66
2021/07/24 06:18:20;;;;;;;1.30;0.65;;;22.20;66.70;;;;;;4973591;28;20509;-66
2021/07/24 06:20:47;;;;;;;3.28;0.77;;;22.00;66.70;;;;;;4973176;28;20034;-66
2021/07/24 06:23:15;;;;;;;0.70;0.60;;;21.90;67.10;;;;;;4973190;28;20030;-66
2021/07/24 06:25:41;;;;;;;0.60;0.60;;;22.10;67.70;;;;;;4973284;28;20033;-66
2021/07/24 06:28:07;;;;;;;0.77;0.70;;;22.30;66.40;;;;;;4973227;28;20038;-66
2021/07/24 06:30:37;;;;;;;1.40;0.60;;;22.40;65.90;;;;;;4973014;28;20023;-66
2021/07/24 06:33:03;;;;;;;1.42;0.60;;;22.40;66.40;;;;;;4973513;28;20031;-66
2021/07/24 06:35:29;;;;;;;1.23;0.70;;;22.50;66.20;;;;;;4973292;28;20030;-66
2021/07/24 06:37:55;;;;;;;1.38;0.60;;;22.40;66.30;;;;;;4973366;28;20363;-66
2021/07/24 06:40:21;;;;;;;2.30;0.70;;;22.40;66.10;;;;;;4973327;28;20542;-66
2021/07/24 06:42:46;;;;;;;0.73;0.60;;;22.50;65.90;;;;;;4973309;28;20106;-66
2021/07/24 06:45:12;;;;;;;1.95;0.70;;;22.50;64.80;;;;;;4973127;28;20082;-66
2021/07/24 06:47:38;;;;;;;0.68;0.55;;;22.50;65.50;;;;;;4973009;28;20030;-66
2021/07/24 06:50:05;;;;;;;1.60;0.57;;;22.70;65.30;;;;;;4973154;28;20023;-66
2021/07/24 06:52:30;;;;;;;1.25;0.70;;;22.70;65.20;;;;;;4972657;28;20402;-66
2021/07/24 06:54:56;;;;;;;1.77;1.05;;;22.70;65.80;;;;;;4973013;28;20030;-66
2021/07/24 06:57:22;;;;;;;1.33;0.60;;;23.00;65.90;;;;;;4973357;28;20101;-66
2021/07/24 06:59:48;;;;;;;3.67;0.70;;;22.90;64.70;;;;;;4972776;28;20098;-66
2021/07/24 07:02:13;;;;;;;3.22;0.80;;;22.80;65.60;;;;;;4972890;28;20038;-66
2021/07/24 07:04:39;;;;;;;1.13;0.88;;;22.80;65.70;;;;;;4973020;28;20114;-66
2021/07/24 07:07:06;;;;;;;0.93;0.60;;;22.90;66.00;;;;;;4972930;28;20062;-68
2021/07/24 07:09:33;;;;;;;0.95;0.63;;;23.00;65.60;;;;;;4972963;28;20137;-68
2021/07/24 07:11:59;;;;;;;1.70;0.88;;;23.00;65.00;;;;;;4972901;28;20023;-68
2021/07/24 07:14:25;;;;;;;2.75;0.60;;;23.20;65.70;;;;;;4972741;28;20382;-68
2021/07/24 07:16:52;;;;;;;1.55;0.80;;;23.30;64.60;;;;;;4973004;28;20049;-68
2021/07/24 07:19:19;;;;;;;2.17;1.00;;;23.20;63.40;;;;;;4975846;28;20039;-68
2021/07/24 07:21:45;;;;;;;2.17;0.80;;;23.00;63.80;;;;;;4976510;28;20038;-68
2021/07/24 07:24:11;;;;;;;3.47;0.77;;;23.10;62.80;;;;;;4976521;28;20483;-66
2021/07/24 07:26:37;;;;;;;2.65;0.77;;;23.20;63.30;;;;;;4976389;28;20031;-66
2021/07/24 07:29:03;;;;;;;2.65;0.60;;;23.10;62.50;;;;;;4976516;28;20022;-66
2021/07/24 07:31:34;;;;;;;0.98;0.70;;;23.00;63.30;;;;;;4976303;28;20035;-66
2021/07/24 07:34:00;;;;;;;1.27;0.80;;;22.90;64.10;;;;;;4976457;28;20050;-66
2021/07/24 07:36:26;;;;;;;1.25;0.70;;;22.80;64.20;;;;;;4976559;28;20050;-66
2021/07/24 07:38:52;;;;;;;2.20;0.70;;;22.60;63.70;;;;;;4976090;28;20068;-66
2021/07/24 07:41:18;;;;;;;0.80;0.73;;;22.30;65.10;;;;;;4976298;28;20363;-66
2021/07/24 07:43:45;;;;;;;4.13;0.70;;;22.30;65.30;;;;;;4976221;28;20379;-66
2021/07/24 07:46:11;;;;;;;2.70;0.90;;;22.30;67.20;;;;;;4976561;28;20495;-66
2021/07/24 07:48:37;;;;;;;1.55;0.90;;;22.20;66.40;;;;;;4976096;28;20055;-67
2021/07/24 07:51:06;;;;;;;2.78;0.60;;;22.30;66.60;;;;;;4975979;28;20501;-67
2021/07/24 07:53:33;;;;;;;2.38;0.93;;;22.40;66.70;;;;;;4975455;28;20113;-67
2021/07/24 07:55:59;;;;;;;1.40;0.80;;;22.50;67.10;;;;;;4976294;28;20085;-67
2021/07/24 07:58:25;;;;;;;1.98;0.70;;;22.50;64.90;;;;;;4975944;28;20042;-67
2021/07/24 08:00:54;;;;;;;3.65;0.80;;;22.50;65.30;;;;;;4958435;28;20047;-67
2021/07/24 08:03:24;;;;;;;0.70;0.70;;;22.50;65.40;;;;;;4976324;28;20023;-67
2021/07/24 08:05:53;;;;;;;1.15;0.82;;;22.50;66.80;;;;;;4975741;28;20267;-67
2021/07/24 08:08:19;;;;;;;1.77;0.90;;;22.40;65.60;;;;;;4976083;28;20033;-67
2021/07/24 08:10:45;;;;;;;1.90;1.10;;;22.30;65.50;;;;;;4975499;28;20130;-67
2021/07/24 08:13:15;;;;;;;2.80;1.13;;;22.20;66.90;;;;;;4975894;28;20054;-67
2021/07/24 08:15:42;;;;;;;2.85;1.17;;;22.20;67.00;;;;;;4975674;28;20086;-67
2021/07/24 08:18:08;;;;;;;1.25;1.00;;;22.20;67.40;;;;;;4975792;28;20031;-67
2021/07/24 08:20:34;;;;;;;3.45;0.95;;;22.20;67.60;;;;;;4975497;28;20039;-67
2021/07/24 08:23:03;;;;;;;5.88;1.15;;;22.20;67.50;;;;;;4975643;28;20110;-67
2021/07/24 08:25:28;;;;;;;1.50;1.00;;;22.20;67.20;;;;;;4975400;28;20102;-67
2021/07/24 08:27:54;;;;;;;1.70;1.20;;;22.20;67.90;;;;;;4975308;28;20121;-67
2021/07/24 08:30:20;;;;;;;3.17;1.08;;;22.10;67.80;;;;;;4975220;28;20077;-67
2021/07/24 08:32:46;;;;;;;1.50;0.95;;;22.10;68.30;;;;;;4975178;28;20043;-67
2021/07/24 08:35:12;;;;;;;6.30;1.00;;;22.10;68.10;;;;;;4975173;28;20050;-67
2021/07/24 08:37:38;;;;;;;0.80;0.75;;;22.00;66.90;;;;;;4975110;28;20486;-67
2021/07/24 08:40:04;;;;;;;3.47;1.10;;;21.80;66.60;;;;;;4974958;28;20121;-67
2021/07/24 08:42:39;;;;;;;2.13;1.20;;;21.70;66.60;;;;;;4975332;28;20023;-67
2021/07/24 08:45:06;;;;;;;1.33;1.20;;;21.60;67.60;;;;;;4975056;28;20027;-67
2021/07/24 08:47:32;;;;;;;2.53;1.40;;;21.50;68.00;;;;;;4975206;28;20034;-67
2021/07/24 08:50:04;;;;;;;1.20;1.00;;;21.50;68.40;;;;;;4974928;28;20035;-67
2021/07/24 08:52:32;;;;;;;2.63;1.20;;;21.50;69.00;;;;;;4974609;28;20573;-67
2021/07/24 08:54:59;;;;;;;3.53;1.38;;;21.50;67.90;;;;;;4975065;28;20129;-67
2021/07/24 08:57:32;;;;;;;3.40;1.40;;;21.50;67.60;;;;;;4975175;28;20035;-67
2021/07/24 09:00:15;;;;;;;2.13;1.70;;;21.50;66.60;;;;;;4974728;28;20050;-67
2021/07/24 09:02:43;;;;;;;2.72;1.50;;;21.40;65.20;;;;;;4974588;28;20086;-67
2021/07/24 09:05:10;;;;;;;4.15;2.13;;;21.40;66.80;;;;;;4974544;28;20546;-67
2021/07/24 09:07:46;;;;;;;2.15;1.05;;;21.40;67.00;;;;;;4974500;28;20019;-67
2021/07/24 09:10:13;;;;;;;1.98;1.30;;;21.50;68.10;;;;;;4974475;28;20027;-67
2021/07/24 09:12:43;;;;;;;2.28;1.40;;;21.60;69.80;;;;;;4974471;28;20493;-67
2021/07/24 09:15:12;;;;;;;2.60;1.33;;;21.70;68.90;;;;;;4974616;28;20062;-67
2021/07/24 09:17:38;;;;;;;2.03;1.50;;;21.80;68.40;;;;;;4957119;28;20019;-67
2021/07/24 09:20:05;;;;;;;2.15;1.30;;;21.80;69.30;;;;;;4974318;28;20049;-67
2021/07/24 09:22:32;;;;;;;3.08;1.80;;;21.80;69.00;;;;;;4974393;28;20070;-67
2021/07/24 09:25:09;;;;;;;2.28;1.52;;;21.70;68.30;;;;;;4974075;28;20043;-67
2021/07/24 09:27:41;;;;;;;2.25;1.40;;;21.70;68.50;;;;;;4974245;28;20050;-67
2021/07/24 09:30:11;;;;;;;4.18;1.60;;;21.70;68.40;;;;;;4974174;28;20030;-67
2021/07/24 09:32:36;;;;;;;2.47;2.17;;;21.70;67.50;;;;;;4974122;28;20034;-67
2021/07/24 09:35:02;;;;;;;2.85;1.63;;;21.50;67.30;;;;;;4974162;28;20031;-67
2021/07/24 09:37:32;;;;;;;6.97;1.60;;;21.40;67.20;;;;;;4974167;28;20034;-67
2021/07/24 09:40:20;;;;;;;3.08;1.95;;;21.20;67.70;;;;;;4973695;28;20042;-67
2021/07/24 09:42:46;;;;;;;1.98;1.60;;;21.20;69.00;;;;;;4974159;28;20046;-67
2021/07/24 09:45:12;;;;;;;2.63;1.77;;;21.40;68.70;;;;;;4974141;28;20026;-67
2021/07/24 09:47:38;;;;;;;4.55;1.90;;;21.40;68.30;;;;;;4973871;28;20030;-67
2021/07/24 09:50:15;;;;;;;3.30;1.80;;;21.40;68.70;;;;;;4974138;28;20030;-67
2021/07/24 09:52:50;;;;;;;6.32;1.73;;;21.40;68.20;;;;;;4973638;28;20046;-67
2021/07/24 09:55:23;;;;;;;4.68;1.90;;;21.40;67.50;;;;;;4974176;28;20024;-67
2021/07/24 09:57:51;;;;;;;2.97;2.22;;;21.50;67.80;;;;;;4973978;28;20077;-67
2021/07/24 10:00:26;;;;;;;3.35;2.00;;;21.60;69.00;;;;;;4973573;28;20042;-67
2021/07/24 10:03:27;;;;;;;4.15;2.30;;;21.80;67.90;;;;;;4973377;28;20031;-67
2021/07/24 10:05:53;;;;;;;4.28;1.92;;;21.90;66.90;;;;;;4973487;28;20062;-67
2021/07/24 10:08:19;;;;;;;6.95;2.20;;;21.90;66.80;;;;;;4956439;28;20023;-67
2021/07/24 10:10:45;;;;;;;3.13;2.08;;;22.00;67.90;;;;;;4973444;28;20474;-67
2021/07/24 10:13:13;;;;;;;7.63;2.35;;;22.10;67.40;;;;;;4973501;28;20057;-67
2021/07/24 10:15:44;;;;;;;2.00;1.80;;;22.10;66.40;;;;;;4973329;28;20033;-67
2021/07/24 10:18:12;;;;;;;4.30;2.13;;;22.00;66.60;;;;;;4973488;28;20021;-67
2021/07/24 10:20:44;;;;;;;2.38;1.90;;;22.00;66.80;;;;;;4972996;28;20049;-67
2021/07/24 10:23:11;;;;;;;3.13;1.90;;;21.90;66.90;;;;;;4973395;28;20031;-67
2021/07/24 10:26:02;;;;;;;3.25;2.10;;;22.00;67.10;;;;;;4973443;28;20041;-67
2021/07/24 10:28:34;;;;;;;2.97;2.00;;;21.90;65.90;;;;;;4956342;28;20030;-67
2021/07/24 10:31:22;;;;;;;3.30;2.30;;;21.90;65.10;;;;;;4973368;28;20042;-67
2021/07/24 10:33:49;;;;;;;3.65;2.30;;;21.90;65.20;;;;;;4973563;28;20029;-67
2021/07/24 10:36:16;;;;;;;3.25;1.88;;;21.90;65.00;;;;;;4973343;28;20027;-67
2021/07/24 10:39:07;;;;;;;4.22;2.20;;;21.90;65.40;;;;;;4973054;28;20046;-67
2021/07/24 10:41:33;;;;;;;4.25;2.10;;;21.90;65.10;;;;;;4973328;28;20030;-67
2021/07/24 10:43:59;;;;;;;4.40;2.25;;;21.80;65.70;;;;;;4972922;28;20031;-68
2021/07/24 10:46:45;;;;;;;3.78;1.98;;;21.80;67.00;;;;;;4973266;28;20030;-67
2021/07/24 10:49:26;;;;;;;4.93;2.03;;;21.90;67.50;;;;;;4956074;28;20035;-67
2021/07/24 10:51:58;;;;;;;4.22;2.10;;;22.00;67.20;;;;;;4973318;28;20081;-67
2021/07/24 10:54:25;;;;;;;2.92;2.13;;;22.00;66.60;;;;;;4977235;28;20050;-67
2021/07/24 10:56:51;;;;;;;5.90;2.13;;;22.10;66.80;;;;;;4976969;28;20019;-67
2021/07/24 10:59:21;;;;;;;2.47;1.63;;;22.10;66.90;;;;;;4976927;28;20154;-67
2021/07/24 11:01:51;;;;;;;3.05;1.85;;;22.10;67.30;;;;;;4977114;28;20031;-67
2021/07/24 11:04:38;;;;;;;2.80;2.00;;;22.10;66.90;;;;;;4977120;28;20026;-67
2021/07/24 11:07:16;;;;;;;2.40;1.80;;;22.10;66.00;;;;;;4977148;28;20106;-67
2021/07/24 11:09:46;;;;;;;4.97;2.10;;;22.10;67.10;;;;;;4976830;28;20034;-67
2021/07/24 11:12:12;;;;;;;3.42;1.75;;;22.20;66.80;;;;;;4976794;28;20023;-67
2021/07/24 11:14:38;;;;;;;2.38;1.92;;;22.20;67.40;;;;;;4976635;28;20386;-67
2021/07/24 11:17:07;;;;;;;6.22;2.10;;;22.20;67.70;;;;;;4976856;28;20034;-67
2021/07/24 11:19:33;;;;;;;4.35;2.08;;;22.20;66.70;;;;;;4976588;28;20035;-67
2021/07/24 11:22:23;;;;;;;2.45;1.75;;;22.20;66.90;;;;;;4976467;28;20023;-67
2021/07/24 11:24:52;;;;;;;2.92;1.80;;;22.20;67.30;;;;;;4976374;28;20034;-67
2021/07/24 11:27:27;;;;;;;5.10;1.95;;;22.20;67.70;;;;;;4976797;28;20031;-67
2021/07/24 11:29:54;;;;;;;3.35;1.70;;;22.20;68.50;;;;;;4976241;28;20032;-67
2021/07/24 11:32:26;;;;;;;5.28;2.25;;;22.30;68.10;;;;;;4976328;28;20035;-67
2021/07/24 11:35:00;;;;;;;4.72;1.83;;;22.30;68.20;;;;;;4976413;28;20058;-67
2021/07/24 11:37:48;;;;;;;6.15;1.58;;;22.30;68.40;;;;;;4976298;28;20421;-67
2021/07/24 11:40:20;;;;;;;2.80;1.80;;;22.30;69.00;;;;;;4976333;28;20070;-67
2021/07/24 11:42:58;;;;;;;4.57;1.98;;;22.30;69.10;;;;;;4976392;28;20114;-68
2021/07/24 11:45:24;;;;;;;3.03;1.42;;;22.20;68.60;;;;;;4976015;28;20106;-67
2021/07/24 11:48:18;;;;;;;2.47;1.67;;;22.20;68.70;;;;;;4976009;28;20026;-67
2021/07/24 11:50:45;;;;;;;3.25;2.13;;;22.20;69.00;;;;;;4975734;28;20549;-67
2021/07/24 11:53:11;;;;;;;9.00;2.00;;;22.10;69.30;;;;;;4975907;28;20109;-67
2021/07/24 11:55:40;;;;;;;5.38;2.00;;;22.10;69.20;;;;;;4976016;28;20023;-67
2021/07/24 11:58:07;;;;;;;3.03;1.52;;;22.10;69.20;;;;;;4975845;28;20030;-67
2021/07/24 12:00:50;;;;;;;5.65;1.75;;;22.20;69.70;;;;;;4958393;28;20066;-67
2021/07/24 12:03:21;;;;;;;2.55;1.52;;;22.20;70.70;;;;;;4975391;28;20069;-67
2021/07/24 12:05:49;;;;;;;3.08;1.90;;;22.20;70.00;;;;;;4975734;28;20027;-67
2021/07/24 12:08:21;;;;;;;5.45;1.75;;;22.20;69.80;;;;;;4976109;28;20106;-67
2021/07/24 12:10:48;;;;;;;5.68;1.90;;;22.30;69.80;;;;;;4975585;28;20050;-67
2021/07/24 12:13:25;;;;;;;2.75;1.75;;;22.30;70.70;;;;;;4975993;28;20035;-67
2021/07/24 12:16:05;;;;;;;2.35;1.63;;;22.30;70.80;;;;;;4975749;28;20154;-67
2021/07/24 12:18:47;;;;;;;2.95;1.33;;;22.40;71.60;;;;;;4975832;28;20034;-67
2021/07/24 12:21:21;;;;;;;1.73;1.40;;;22.50;71.70;;;;;;4975586;28;20034;-67
2021/07/24 12:23:55;;;;;;;3.35;1.45;;;22.40;70.30;;;;;;4975483;28;20034;-68
2021/07/24 12:26:27;;;;;;;3.10;1.60;;;22.40;70.60;;;;;;4975662;28;20037;-67
2021/07/24 12:28:53;;;;;;;3.42;1.80;;;22.50;70.70;;;;;;4975282;28;20031;-67
2021/07/24 12:31:21;;;;;;;3.88;1.48;;;22.50;70.00;;;;;;4975230;28;20046;-67
2021/07/24 12:34:03;;;;;;;5.55;1.17;;;22.50;70.00;;;;;;4975180;28;20025;-67
2021/07/24 12:36:30;;;;;;;13.05;1.35;;;22.50;69.80;;;;;;4975126;28;20030;-67
2021/07/24 12:38:57;;;;;;;4.22;1.50;;;22.50;68.00;;;;;;4975270;28;20451;-67
2021/07/24 12:41:33;;;;;;;3.63;1.80;;;22.50;69.40;;;;;;4975039;28;20031;-67
2021/07/24 12:44:09;;;;;;;2.72;1.25;;;22.50;69.00;;;;;;4974974;28;20069;-67
2021/07/24 12:46:36;;;;;;;3.65;1.25;;;22.50;68.20;;;;;;4975196;28;20035;-67
2021/07/24 12:49:03;;;;;;;5.93;1.33;;;22.50;68.00;;;;;;4974939;28;20542;-67
2021/07/24 12:51:38;;;;;;;3.58;1.40;;;22.40;68.10;;;;;;4975033;28;20031;-67
2021/07/24 12:54:16;;;;;;;5.57;3.08;;;22.30;67.70;;;;;;4974680;28;20042;-67
2021/07/24 12:56:49;;;;;;;2.33;1.65;;;22.30;67.70;;;;;;4975077;28;20026;-67
2021/07/24 12:59:15;;;;;;;1.92;1.10;;;22.20;68.00;;;;;;4974722;28;20031;-67
2021/07/24 13:01:49;;;;;;;3.28;1.13;;;22.20;68.10;;;;;;4974966;28;20034;-67
2021/07/24 13:04:16;;;;;;;5.57;1.38;;;22.10;67.90;;;;;;4974777;28;20459;-67
2021/07/24 13:06:42;;;;;;;1.58;1.23;;;22.00;68.40;;;;;;4974615;28;20054;-67
2021/07/24 13:09:09;;;;;;;1.83;1.10;;;22.00;68.90;;;;;;4974486;28;20421;-67
2021/07/24 13:11:35;;;;;;;3.08;1.23;;;22.00;69.40;;;;;;4974452;28;20126;-67
2021/07/24 13:14:02;;;;;;;3.20;1.50;;;22.00;69.40;;;;;;4974802;28;20031;-67
2021/07/24 13:16:32;;;;;;;2.20;1.60;;;22.10;70.00;;;;;;4973790;28;20038;-67
2021/07/24 13:18:57;;;;;;;1.95;1.40;;;22.20;70.70;;;;;;4974572;28;20089;-68
2021/07/24 13:21:23;;;;;;;2.95;0.90;;;22.30;70.70;;;;;;4974228;28;20072;-67
2021/07/24 13:23:55;;;;;;;2.97;1.20;;;22.30;69.70;;;;;;4974532;28;20031;-67
2021/07/24 13:29:04;;;;;;;4.10;0.80;;;22.20;69.40;;;;;;4974518;28;20077;-67
2021/07/24 13:31:30;;;;;;;18.20;1.60;;;22.20;68.90;;;;;;4974396;28;20027;-67
2021/07/24 13:33:56;;;;;;;1.85;0.98;;;22.20;69.10;;;;;;4956742;28;20038;-67